KINT/INT METAR and TAF weather

Enter ICAO airport designator
Station Type Date Time Source
KINT METAR 2022/06/26 07:54 UTC NOAA

KINT 260754Z AUTO 18005KT 10SM CLR 23/16 A3015 RMK AO2 SLP198 T02280161


Station Type Date Time Source
KINT Decoded METAR 2022/06/26 07:54 UTC NOAA

WINSTON SALEM SMITH REYNOLDS, NC, United States (KINT) 36-08N 80-14W 291M
Jun 26, 2022 - 03:54 AM EDT / 2022.06.26 0754 UTC
Wind: from the S (180 degrees) at 6 MPH (5 KT):0
Visibility: 10 mile(s):0
Sky conditions: clear
Temperature: 73.0 F (22.8 C)
Dew Point: 61.0 F (16.1 C)
Relative Humidity: 65%
Pressure (altimeter): 30.15 in. Hg (1020 hPa)
ob: KINT 260754Z AUTO 18005KT 10SM CLR 23/16 A3015 RMK AO2 SLP198 T02280161
cycle: 8

Station Type Date Time Source
KINT TAF 2022/06/26 06:22 UTC NOAA

TAF KINT 260520Z 2606/2706 20004KT P6SM FEW060 BKN250
FM261800 24005KT P6SM VCSH SCT050
FM270000 30003KT P6SM BKN100

Example: see airport list